Latest Weather Observations for Paraburdoo

IDW60801

Issued at 5:43 pm WST Sunday 19 August 2018 (issued every 10 minutes, with the page automatically refreshed every 10 minutes)

About weather observations | Map of weather stations | Latest weather observations for WA | Other Formats
Station Details ID: 007185 Name: PARABURDOO AERO Lat: -23.17 Lon: 117.75 Height: 423.7 m
Data from the previous 72 hours. | See also: Recent months at Paraburdoo
Date/Time
WST
Temp
°C
App
Temp
°C
Dew
Point
°C
Rel
Hum
%
Delta-T
°C
Wind Press
QNH
hPa
Press
MSL
hPa
Rain since
9am
mm
Dir  Spd
km/h
Gust
km/h
Spd
kts
Gust
kts
19/05:30pm 27.7 22.1 -6.6 10 14.6 NE 15 19 8 10 1018.9 1017.5 0.0
19/05:00pm 28.6 22.7 -6.0 10 15.0 ENE 17 26 9 14 1018.8 1017.4 0.0
19/04:30pm 28.9 23.0 -5.7 10 15.1 NE 17 30 9 16 1018.7 1017.3 0.0
19/04:00pm 29.5 22.9 -6.7 9 15.6 NE 20 32 11 17 1018.7 1017.3 0.0
19/03:30pm 29.6 22.7 -6.6 9 15.7 NE 22 32 12 17 1018.6 1017.2 0.0
19/03:00pm 29.6 22.7 -6.6 9 15.6 ENE 22 32 12 17 1018.7 1017.3 0.0
19/02:30pm 29.5 22.9 -6.7 9 15.6 ENE 20 32 11 17 1018.8 1017.4 0.0
19/02:00pm 29.6 22.3 -6.6 9 15.6 NNE 24 33 13 18 1019.1 1017.7 0.0
19/01:30pm 29.5 21.8 -6.7 9 15.6 NE 26 35 14 19 1019.4 1018.0 0.0
19/01:00pm 29.1 21.1 -5.6 10 15.2 NE 28 44 15 24 1019.5 1018.1 0.0
19/12:30pm 29.2 21.3 -4.3 11 15.1 ENE 28 39 15 21 1020.1 1018.8 0.0
19/12:00pm 28.7 19.0 -2.4 13 14.4 NE 39 50 21 27 1020.5 1019.2 0.0
19/11:30am 28.0 19.1 -2.0 14 13.9 NE 35 44 19 24 1020.9 1019.6 0.0
19/11:00am 27.3 19.5 -0.7 16 13.2 NE 30 41 16 22 1021.5 1020.1 0.0
19/10:30am 26.4 18.4 0.2 18 12.5 NE 32 39 17 21 1022.0 1020.7 0.0
19/10:00am 25.5 18.7 0.9 20 11.8 ENE 26 35 14 19 1022.3 1021.0 0.0
19/09:30am 24.4 17.8 1.9 23 10.9 ENE 26 37 14 20 1022.2 1020.9 0.0
19/09:00am 23.0 16.7 1.4 24 10.2 NE 24 33 13 18 1022.1 1020.8 0.0
19/08:30am 21.2 15.6 1.5 27 9.3 NE 20 26 11 14 1022.2 1020.9 0.0
19/08:00am 19.4 14.3 0.9 29 8.4 NE 17 24 9 13 1022.0 1020.7 0.0
19/07:30am 17.7 13.4 0.8 32 7.6 ENE 13 17 7 9 1021.7 1020.3 0.0
19/07:27am 17.5 13.1 0.6 32 7.6 ENE 13 17 7 9 1021.6 1020.2 0.0
19/07:00am 12.5 9.2 -1.1 39 5.6 ENE 6 7 3 4 1021.4 1020.0 0.0
19/06:30am 11.0 7.4 -2.1 40 5.2 ENE 7 9 4 5 1020.7 1019.4 0.0
19/06:00am 12.5 8.1 -2.1 36 5.9 ENE 11 13 6 7 1020.5 1019.2 0.0
19/05:30am 11.1 7.0 -3.4 36 5.6 NE 9 11 5 6 1020.2 1018.9 0.0
19/05:00am 11.8 7.7 -3.1 35 5.8 NE 9 11 5 6 1019.9 1018.6 0.0
19/04:30am 11.6 7.4 -3.7 34 5.9 NE 9 11 5 6 1019.5 1018.1 0.0
19/04:00am 11.7 7.9 -3.6 34 5.9 NE 7 11 4 6 1019.3 1017.9 0.0
19/03:30am 11.7 7.9 -4.0 33 6.0 E 7 9 4 5 1019.3 1017.9 0.0
19/03:00am 12.5 7.5 -4.1 31 6.4 NNE 13 15 7 8 1019.2 1017.8 0.0
19/02:30am 13.4 9.8 -3.8 30 6.7 E 6 9 3 5 1019.1 1017.7 0.0
19/02:00am 12.8 9.1 -4.3 30 6.6 NNE 6 7 3 4 1019.2 1017.8 0.0
19/01:30am 13.7 10.1 -4.0 29 6.9 ENE 6 7 3 4 1019.3 1017.9 0.0
19/01:00am 14.3 10.1 -3.5 29 7.1 NE 9 11 5 6 1019.2 1017.8 0.0
19/12:30am 14.2 10.4 -4.0 28 7.2 E 7 11 4 6 1019.2 1017.8 0.0
19/12:00am 15.0 10.8 -3.8 27 7.5 NE 9 11 5 6 1019.4 1018.0 0.0
 
Date/Time
WST
Temp
°C
App
Temp
°C
Dew
Point
°C
Rel
Hum
%
Delta-T
°C
Wind Press
QNH
hPa
Press
MSL
hPa
Rain since
9am
mm
Dir  Spd
km/h
Gust
km/h
Spd
kts
Gust
kts
18/11:30pm 16.7 12.6 -3.4 25 8.2 NE 9 11 5 6 1019.6 1018.2 0.0
18/11:00pm 16.1 11.9 -3.9 25 8.0 ENE 9 11 5 6 1019.8 1018.4 0.0
18/10:30pm 16.6 12.1 -3.5 25 8.2 ENE 11 13 6 7 1019.7 1018.3 0.0
18/10:00pm 16.3 11.8 -3.2 26 8.0 ENE 11 15 6 8 1019.6 1018.2 0.0
18/09:30pm 17.8 14.1 -3.0 24 8.7 E 7 9 4 5 1019.6 1018.2 0.0
18/09:00pm 18.5 14.9 -3.6 22 9.1 ENE 6 11 3 6 1019.5 1018.1 0.0
18/08:30pm 19.2 15.0 -3.6 21 9.5 ENE 9 11 5 6 1019.3 1017.9 0.0
18/08:00pm 19.0 14.8 -3.8 21 9.4 E 9 13 5 7 1019.1 1017.7 0.0
18/07:30pm 20.8 16.5 -4.4 18 10.5 ESE 9 11 5 6 1018.7 1017.3 0.0
18/07:00pm 22.3 18.4 -4.7 16 11.3 ENE 7 9 4 5 1018.4 1017.1 0.0
18/06:30pm 24.2 19.5 -4.9 14 12.4 ENE 11 13 6 7 1018.0 1016.7 0.0
18/06:00pm 26.0 20.9 -5.6 12 13.5 ENE 13 15 7 8 1017.7 1016.3 0.0
18/05:30pm 27.5 21.5 -6.8 10 14.5 ENE 17 24 9 13 1017.3 1015.9 0.0
18/05:00pm 28.2 21.9 -6.3 10 14.8 NE 19 30 10 16 1017.0 1015.6 0.0
18/04:30pm 28.6 21.6 -7.3 9 15.2 NE 22 33 12 18 1016.8 1015.4 0.0
18/04:00pm 29.1 22.5 -7.0 9 15.4 ENE 20 32 11 17 1016.7 1015.3 0.0
18/03:30pm 29.3 20.8 -6.8 9 15.5 NE 30 39 16 21 1016.7 1015.3 0.0
18/03:00pm 29.5 22.0 -8.2 8 15.8 NE 24 41 13 22 1016.6 1015.2 0.0
18/02:30pm 30.0 22.6 -7.8 8 16.1 NE 24 41 13 22 1016.5 1015.1 0.0
18/02:00pm 29.1 22.7 -7.0 9 15.4 NNE 19 32 10 17 1016.6 1015.2 0.0
18/01:30pm 29.6 22.4 -9.8 7 16.1 NE 22 37 12 20 1016.8 1015.4 0.0
18/01:00pm 29.1 23.5 -3.2 12 14.8 ENE 17 30 9 16 1017.3 1015.9 0.0
18/12:30pm 28.8 22.7 -2.3 13 14.4 ENE 20 33 11 18 1017.9 1016.6 0.0
18/12:00pm 27.4 20.6 -1.5 15 13.4 ENE 24 32 13 17 1018.4 1017.1 0.0
18/11:30am 27.6 20.7 0.4 17 13.1 ENE 26 35 14 19 1018.9 1017.5 0.0
18/11:00am 27.2 20.1 1.6 19 12.6 ENE 28 35 15 19 1019.1 1017.7 0.0
18/10:30am 25.6 18.7 2.3 22 11.5 ENE 28 39 15 21 1019.6 1018.2 0.0
18/10:00am 24.1 18.1 3.4 26 10.3 E 24 35 13 19 1019.9 1018.6 0.0
18/09:30am 22.6 17.3 3.2 28 9.5 E 20 28 11 15 1020.0 1018.7 0.0
18/09:00am 21.9 16.6 3.1 29 9.1 E 20 30 11 16 1020.0 1018.7 0.0
18/08:30am 20.7 14.6 3.0 31 8.5 ENE 24 33 13 18 1019.9 1018.6 0.0
18/08:00am 20.1 14.8 2.9 32 8.2 E 20 30 11 16 1019.8 1018.4 0.0
18/07:30am 19.2 14.9 3.0 34 7.7 E 15 22 8 12 1019.5 1018.1 0.0
18/07:00am 17.8 13.0 2.5 36 7.1 E 17 24 9 13 1019.1 1017.7 0.0
18/06:30am 17.7 11.9 2.5 36 7.1 E 22 32 12 17 1018.8 1017.4 0.0
18/06:00am 18.1 11.1 2.0 34 7.4 E 28 35 15 19 1018.2 1016.9 0.0
18/05:30am 18.1 11.9 2.0 34 7.5 E 24 35 13 19 1017.7 1016.3 0.0
18/05:00am 18.6 12.3 1.6 32 7.8 E 24 33 13 18 1017.4 1016.0 0.0
18/04:30am 18.7 12.4 1.7 32 7.9 E 24 33 13 18 1017.0 1015.6 0.0
18/04:00am 18.8 13.2 0.9 30 8.1 E 20 32 11 17 1017.0 1015.6 0.0
18/03:30am 19.4 11.5 0.9 29 8.5 ESE 32 44 17 24 1016.7 1015.3 0.0
18/03:00am 20.1 12.0 1.0 28 8.8 ESE 33 46 18 25 1016.7 1015.3 0.0
18/02:30am 20.8 14.0 1.1 27 9.2 ESE 26 39 14 21 1016.6 1015.2 0.0
18/02:00am 18.7 15.5 0.8 30 8.1 SSW 7 11 4 6 1016.9 1015.5 0.0
18/01:30am 16.2 12.7 -1.4 30 7.5 ENE 7 11 4 6 1016.9 1015.5 0.0
18/01:00am 18.8 14.4 0.4 29 8.3 S 13 17 7 9 1016.9 1015.5 0.0
18/12:30am 18.2 13.4 -0.1 29 8.1 S 15 17 8 9 1017.0 1015.6 0.0
18/12:00am 14.5 10.3 -4.2 27 7.3 SSE 9 13 5 7 1017.2 1015.8 0.0
 
Date/Time
WST
Temp
°C
App
Temp
°C
Dew
Point
°C
Rel
Hum
%
Delta-T
°C
Wind Press
QNH
hPa
Press
MSL
hPa
Rain since
9am
mm
Dir  Spd
km/h
Gust
km/h
Spd
kts
Gust
kts
17/11:30pm 14.7 10.5 -4.1 27 7.4 ENE 9 11 5 6 1017.2 1015.8 0.0
17/11:00pm 14.3 10.7 -3.9 28 7.2 E 6 7 3 4 1017.1 1015.7 0.0
17/10:30pm 15.4 11.2 -4.0 26 7.7 NE 9 11 5 6 1017.1 1015.7 0.0
17/10:00pm 16.2 10.9 -3.8 25 8.1 NE 15 17 8 9 1017.1 1015.7 0.0
17/09:30pm 17.5 12.6 -3.8 23 8.7 NNE 13 15 7 8 1017.0 1015.6 0.0
17/09:00pm 17.1 12.9 -4.2 23 8.6 ENE 9 13 5 7 1016.8 1015.4 0.0
17/08:30pm 18.0 14.3 -4.6 21 9.1 SSE 6 7 3 4 1016.6 1015.2 0.0
17/08:00pm 20.2 16.2 -5.6 17 10.4 S 7 11 4 6 1016.5 1015.1 0.0
17/07:30pm 22.0 17.3 -4.9 16 11.2 S 11 13 6 7 1016.2 1014.8 0.0
17/07:00pm 23.5 18.8 -5.5 14 12.1 SSW 11 13 6 7 1015.8 1014.5 0.0
17/06:30pm 24.8 20.1 -5.5 13 12.8 SSW 11 13 6 7 1015.4 1014.0 0.0
17/06:00pm 26.0 20.9 -5.6 12 13.5 SSW 13 15 7 8 1015.1 1013.7 0.0
17/05:30pm 27.8 23.1 -5.3 11 14.4 SW 11 17 6 9 1014.7 1013.3 0.0
17/05:00pm 28.6 23.4 -6.0 10 15.0 SW 13 22 7 12 1014.4 1013.0 0.0
17/04:30pm 28.5 24.1 -6.0 10 15.0 ESE 9 13 5 7 1014.2 1012.8 0.0
17/04:00pm 28.7 22.8 -5.9 10 15.1 SSW 17 26 9 14 1014.0 1012.6 0.0
17/03:30pm 29.1 24.2 -7.0 9 15.5 W 11 19 6 10 1013.9 1012.5 0.0
17/03:00pm 29.4 24.0 -8.2 8 15.8 WSW 13 20 7 11 1013.9 1012.5 0.0
17/02:30pm 28.9 24.1 -5.7 10 15.1 SSW 11 19 6 10 1014.1 1012.7 0.0
17/02:00pm 28.8 23.1 -7.2 9 15.3 W 15 22 8 12 1014.2 1012.8 0.0
17/01:30pm 28.5 23.2 -7.4 9 15.2 SSW 13 19 7 10 1014.3 1012.9 0.0
17/01:00pm 28.6 23.8 -6.0 10 15.0 SW 11 20 6 11 1014.7 1013.3 0.0
17/12:30pm 27.6 22.6 -8.1 9 14.8 SE 11 17 6 9 1015.2 1013.8 0.0
17/12:00pm 27.5 24.4 0.3 17 13.1 SE 6 9 3 5 1015.6 1014.2 0.0
17/11:30am 26.2 23.3 1.5 20 12.0 NW 6 9 3 5 1016.2 1014.8 0.0
17/11:00am 25.8 22.9 2.5 22 11.5 ESE 7 11 4 6 1016.6 1015.2 0.0
17/10:30am 24.8 22.3 4.0 26 10.5 NNE 6 9 3 5 1016.9 1015.5 0.0
17/10:00am 23.2 20.7 3.7 28 9.7 SE 6 11 3 6 1017.1 1015.7 0.0
17/09:30am 22.0 18.9 3.6 30 9.1 ENE 9 11 5 6 1017.0 1015.6 0.0
17/09:00am 20.7 17.7 3.9 33 8.2 E 9 11 5 6 1016.9 1015.5 0.0
17/08:30am 19.0 16.2 3.2 35 7.6 E 7 11 4 6 1016.8 1015.4 0.0
17/08:00am 15.8 12.9 1.2 37 6.5 ENE 6 7 3 4 1016.6 1015.2 0.0
17/07:30am 11.6 8.7 -0.9 42 5.1 E 4 7 2 4 1016.5 1015.1 0.0
17/07:00am 9.7 6.2 -1.3 46 4.4 NE 7 9 4 5 1016.1 1014.7 0.0
17/06:30am 9.1 5.5 -1.9 46 4.3 NE 7 9 4 5 1015.6 1014.2 0.0
17/06:00am 9.1 5.4 -2.5 44 4.5 ENE 7 9 4 5 1015.4 1014.0 0.0
17/05:30am 9.8 6.2 -2.2 43 4.7 ENE 7 9 4 5 1015.2 1013.8 0.0
17/05:00am 10.5 6.5 -1.9 42 4.9 NE 9 11 5 6 1015.0 1013.6 0.0
17/04:30am 11.2 7.8 -2.2 39 5.3 NNE 6 7 3 4 1014.9 1013.5 0.0
17/04:00am 11.7 8.2 -2.5 37 5.6 NNE 6 9 3 5 1014.9 1013.5 0.0
17/03:30am 12.3 8.6 -2.7 35 6.0 NNE 7 9 4 5 1014.9 1013.5 0.0
17/03:00am 14.0 10.0 -2.0 33 6.6 NE 9 13 5 7 1015.0 1013.6 0.0
17/02:30am 12.5 8.4 -2.9 34 6.1 E 9 9 5 5 1015.0 1013.6 0.0
17/02:00am 13.1 9.6 -2.8 33 6.3 N 6 9 3 5 1015.0 1013.6 0.0
17/01:30am 14.7 12.4 -2.7 30 7.1 CALM 0 6 0 3 1015.0 1013.6 0.0
17/01:00am 16.6 11.9 -2.0 28 7.8 NW 13 24 7 13 1015.1 1013.7 0.0
17/12:30am 13.5 9.8 -2.8 32 6.5 NE 7 9 4 5 1014.9 1013.5 0.0
17/12:00am 14.4 12.0 -2.9 30 7.0 CALM 0 0 0 0 1015.1 1013.7 0.0
 
Date/Time
WST
Temp
°C
App
Temp
°C
Dew
Point
°C
Rel
Hum
%
Delta-T
°C
Wind Press
QNH
hPa
Press
MSL
hPa
Rain since
9am
mm
Dir  Spd
km/h
Gust
km/h
Spd
kts
Gust
kts
16/11:30pm 16.6 12.6 -2.5 27 8.0 SE 9 11 5 6 1015.3 1013.9 0.0
16/11:00pm 15.9 11.9 -2.6 28 7.6 NE 9 15 5 8 1015.3 1013.9 0.0
16/10:30pm 16.8 12.0 -2.8 26 8.1 NE 13 13 7 7 1015.5 1014.1 0.0
16/10:00pm 17.2 12.4 -2.4 26 8.2 NE 13 17 7 9 1015.6 1014.2 0.0
16/09:30pm 16.6 12.9 -3.0 26 8.1 NE 7 13 4 7 1015.3 1013.9 0.0
16/09:00pm 17.2 13.1 -3.0 25 8.4 NNE 9 13 5 7 1015.4 1014.0 0.0
16/08:30pm 18.3 14.6 -2.6 24 8.8 ENE 7 9 4 5 1015.2 1013.8 0.0
16/08:00pm 20.1 17.3 -2.9 21 9.8 N 2 7 1 4 1015.0 1013.6 0.0
16/07:30pm 21.2 17.1 -3.3 19 10.5 S 9 9 5 5 1014.7 1013.3 0.0
16/07:00pm 22.7 18.3 -2.8 18 11.2 S 11 11 6 6 1014.4 1013.0 0.0
16/06:30pm 23.9 19.4 -3.4 16 11.9 S 11 13 6 7 1014.1 1012.7 0.0
16/06:00pm 25.8 21.6 -3.7 14 13.0 SW 9 13 5 7 1013.9 1012.5 0.0

Other Formats:

Comma delimited format used in spreadsheet applications
http://www.bom.gov.au/fwo/IDW60801/IDW60801.94316.axf

JavaScript Object Notation format (JSON) in row-major order
http://www.bom.gov.au/fwo/IDW60801/IDW60801.94316.json